createdAt,value
2022-12-22T00:01:59.386Z,100524.44
2022-12-22T00:05:31.775Z,100518.34
2022-12-22T00:08:52.840Z,100512.34
2022-12-22T00:12:13.940Z,100503.59
2022-12-22T00:15:37.012Z,100503.59
2022-12-22T00:18:58.124Z,100507.88
2022-12-22T00:22:31.098Z,100498.31
2022-12-22T00:25:52.563Z,100493.13
2022-12-22T00:29:13.695Z,100497.44
2022-12-22T00:32:34.957Z,100501.84
2022-12-22T00:35:56.127Z,100499.97
2022-12-22T00:39:18.696Z,100492.16
2022-12-22T00:42:39.828Z,100497.38
2022-12-22T00:46:00.822Z,100487.91
2022-12-22T00:49:22.303Z,100493.06
2022-12-22T00:52:43.357Z,100489.59
2022-12-22T00:56:06.215Z,100483.50
2022-12-22T00:59:30.069Z,100477.44
2022-12-22T01:02:50.942Z,100482.66
2022-12-22T01:06:11.907Z,100474.78
2022-12-22T01:09:33.030Z,100470.44
2022-12-22T01:12:58.668Z,100465.03
2022-12-22T01:16:20.349Z,100460.03
2022-12-22T01:19:41.566Z,100450.44
2022-12-22T01:23:02.978Z,100446.09
2022-12-22T01:26:28.702Z,100444.28
2022-12-22T01:29:51.046Z,100446.03
2022-12-22T01:33:11.828Z,100440.84
2022-12-22T01:36:34.607Z,100442.56
2022-12-22T01:39:55.659Z,100434.75
2022-12-22T01:43:16.613Z,100433.78
2022-12-22T01:46:44.274Z,100427.75
2022-12-22T01:50:05.448Z,100422.44
2022-12-22T01:53:33.301Z,100412.88
2022-12-22T01:56:54.452Z,100416.34
2022-12-22T02:00:15.259Z,100415.22
2022-12-22T02:03:40.955Z,100416.22
2022-12-22T02:07:08.069Z,100415.34
2022-12-22T02:10:53.374Z,100414.50
2022-12-22T02:14:35.017Z,100405.84
2022-12-22T02:18:09.488Z,100406.78
2022-12-22T02:21:40.565Z,100404.97
2022-12-22T02:25:10.109Z,100408.41
2022-12-22T02:28:34.184Z,100402.38
2022-12-22T02:31:58.200Z,100399.75
2022-12-22T02:35:30.281Z,100390.19
2022-12-22T02:39:03.494Z,100382.31
2022-12-22T02:42:38.430Z,100377.94
2022-12-22T02:46:14.256Z,100372.66
2022-12-22T02:49:41.768Z,100363.88
2022-12-22T02:53:06.143Z,100379.50
2022-12-22T02:56:29.524Z,100364.72
2022-12-22T02:59:50.818Z,100365.56
2022-12-22T03:03:13.627Z,100358.59
2022-12-22T03:06:35.011Z,100356.00
2022-12-22T03:09:56.328Z,100353.44
2022-12-22T03:13:18.803Z,100361.22
2022-12-22T03:16:39.994Z,100344.75
2022-12-22T03:20:02.879Z,100340.44
2022-12-22T03:23:25.502Z,100338.69
2022-12-22T03:26:30.341Z,100317.88
2022-12-22T03:29:33.925Z,100324.78
2022-12-22T03:32:37.820Z,100322.22
2022-12-22T03:35:44.974Z,100316.97
2022-12-22T03:38:48.542Z,100307.44
2022-12-22T03:42:09.581Z,100301.34
2022-12-22T03:45:30.640Z,100295.25
2022-12-22T03:48:34.357Z,100304.66
2022-12-22T03:51:43.769Z,100305.53
2022-12-22T03:54:47.385Z,100301.16
2022-12-22T03:57:51.101Z,100295.88
2022-12-22T04:00:54.770Z,100278.50
2022-12-22T04:03:58.434Z,100277.75
2022-12-22T04:07:03.490Z,100273.38
2022-12-22T04:10:26.208Z,100277.75
2022-12-22T04:13:29.872Z,100261.28
2022-12-22T04:16:33.635Z,100259.50
2022-12-22T04:19:37.303Z,100246.59
2022-12-22T04:22:42.403Z,100249.31
2022-12-22T04:25:45.980Z,100254.56
2022-12-22T04:28:49.652Z,100263.31
2022-12-22T04:31:53.352Z,100262.41
2022-12-22T04:34:57.078Z,100261.41
2022-12-22T04:38:02.055Z,100257.00
2022-12-22T04:41:06.044Z,100259.53
2022-12-22T04:44:09.582Z,100257.75
2022-12-22T04:47:13.358Z,100253.25
2022-12-22T04:50:17.234Z,100253.38
2022-12-22T04:53:22.938Z,100249.03
2022-12-22T04:56:26.543Z,100247.22
2022-12-22T04:59:30.215Z,100247.88
2022-12-22T05:02:34.057Z,100239.31
2022-12-22T05:05:38.219Z,100238.44
2022-12-22T05:08:51.978Z,100233.94
2022-12-22T05:11:56.165Z,100232.97
2022-12-22T05:14:59.822Z,100235.72
2022-12-22T05:18:04.732Z,100232.31
2022-12-22T05:21:11.982Z,100234.84
2022-12-22T05:24:17.457Z,100219.19
2022-12-22T05:27:21.264Z,100220.91
2022-12-22T05:30:24.906Z,100224.16
2022-12-22T05:33:28.576Z,100220.09
2022-12-22T05:36:32.238Z,100218.72
2022-12-22T05:39:37.206Z,100213.00
2022-12-22T05:42:41.075Z,100213.16
2022-12-22T05:45:46.304Z,100215.59
2022-12-22T05:48:50.081Z,100205.19
2022-12-22T05:51:54.270Z,100210.31
2022-12-22T05:54:59.393Z,100203.31
2022-12-22T05:58:06.592Z,100204.38
2022-12-22T06:01:14.538Z,100203.31
2022-12-22T06:04:18.568Z,100191.34
2022-12-22T06:07:22.296Z,100186.34
2022-12-22T06:10:27.348Z,100180.94
2022-12-22T06:13:31.168Z,100185.47
2022-12-22T06:16:34.942Z,100187.38
2022-12-22T06:19:38.561Z,100185.59
2022-12-22T06:22:42.528Z,100185.63
2022-12-22T06:25:56.952Z,100190.88
2022-12-22T06:29:00.555Z,100190.88
2022-12-22T06:32:04.550Z,100184.47
2022-12-22T06:35:10.875Z,100192.50
2022-12-22T06:38:15.024Z,100193.50
2022-12-22T06:41:40.273Z,100182.91
2022-12-22T06:44:42.920Z,100190.56
2022-12-22T06:47:46.531Z,100186.56
2022-12-22T06:50:50.431Z,100191.75
2022-12-22T06:53:54.037Z,100202.25
2022-12-22T06:56:58.963Z,100198.84
2022-12-22T07:00:02.746Z,100204.06
2022-12-22T07:03:07.144Z,100208.38
2022-12-22T07:06:10.873Z,100211.56
2022-12-22T07:09:14.579Z,100209.16
2022-12-22T07:12:19.577Z,100215.22
2022-12-22T07:15:23.258Z,100217.88
2022-12-22T07:18:26.931Z,100215.06
2022-12-22T07:21:31.708Z,100215.69
2022-12-22T07:24:35.362Z,100210.84
2022-12-22T07:27:43.060Z,100209.94
2022-12-22T07:30:46.701Z,100217.03
2022-12-22T07:33:50.420Z,100216.19
2022-12-22T07:36:54.104Z,100213.59
2022-12-22T07:39:58.808Z,100211.81
2022-12-22T07:43:03.929Z,100204.94
2022-12-22T07:46:08.455Z,100212.75
2022-12-22T07:49:31.774Z,100207.44
2022-12-22T07:52:36.169Z,100216.16
2022-12-22T07:55:39.761Z,100221.25
2022-12-22T07:58:44.709Z,100234.25
2022-12-22T08:01:48.635Z,100233.22
2022-12-22T08:04:52.811Z,100231.44
2022-12-22T08:07:56.386Z,100233.13
2022-12-22T08:11:03.379Z,100241.75
2022-12-22T08:14:08.451Z,100245.94
2022-12-22T08:17:12.102Z,100250.28
2022-12-22T08:20:15.896Z,100252.88
2022-12-22T08:23:19.552Z,100248.56
2022-12-22T08:26:31.133Z,100252.00
2022-12-22T08:29:42.700Z,100253.72
2022-12-22T08:32:50.968Z,100251.97
2022-12-22T08:35:56.225Z,100250.13
2022-12-22T08:39:01.409Z,100248.41
2022-12-22T08:42:08.317Z,100247.56
2022-12-22T08:45:13.453Z,100255.34
2022-12-22T08:48:17.145Z,100260.56
2022-12-22T08:51:20.754Z,100257.69
2022-12-22T08:54:24.852Z,100247.22
2022-12-22T08:57:28.848Z,100239.31
2022-12-22T09:00:33.902Z,100252.16
2022-12-22T09:03:37.866Z,100241.63
2022-12-22T09:06:42.334Z,100245.88
2022-12-22T09:09:46.729Z,100240.53
2022-12-22T09:12:51.471Z,100230.84
2022-12-22T09:15:56.549Z,100230.84
2022-12-22T09:19:01.272Z,100247.28
2022-12-22T09:22:05.369Z,100242.06
2022-12-22T09:25:11.866Z,100253.13
2022-12-22T09:28:15.504Z,100252.28
2022-12-22T09:31:21.672Z,100263.56
2022-12-22T09:34:25.590Z,100252.13
2022-12-22T09:37:29.219Z,100255.44
2022-12-22T09:40:34.455Z,100257.78
2022-12-22T09:43:38.741Z,100270.03
2022-12-22T09:46:44.211Z,100269.94
2022-12-22T09:49:48.078Z,100263.78
2022-12-22T09:52:56.275Z,100273.19
2022-12-22T09:56:00.132Z,100280.88
2022-12-22T09:59:03.734Z,100283.44
2022-12-22T10:02:31.648Z,100279.91
2022-12-22T10:05:46.946Z,100281.53
2022-12-22T10:08:50.706Z,100284.38
2022-12-22T10:11:56.051Z,100283.50
2022-12-22T10:14:59.653Z,100286.31
2022-12-22T10:18:14.542Z,100280.34
2022-12-22T10:21:18.881Z,100282.88
2022-12-22T10:24:36.956Z,100294.47
2022-12-22T10:27:45.519Z,100285.84
2022-12-22T10:31:11.897Z,100295.47
2022-12-22T10:34:20.750Z,100289.34
2022-12-22T10:37:34.962Z,100294.66
2022-12-22T10:40:46.050Z,100292.16
2022-12-22T10:43:53.159Z,100293.88
2022-12-22T10:47:01.005Z,100286.00
2022-12-22T10:50:07.832Z,100293.09
2022-12-22T10:53:11.446Z,100290.69
2022-12-22T10:56:27.454Z,100302.81
2022-12-22T10:59:32.646Z,100299.44
2022-12-22T11:02:39.190Z,100295.31
2022-12-22T11:05:47.061Z,100299.59
2022-12-22T11:08:51.894Z,100301.13
2022-12-22T11:12:06.081Z,100302.81
2022-12-22T11:15:27.240Z,100308.91
2022-12-22T11:19:04.904Z,100317.06
2022-12-22T11:22:22.301Z,100310.13
2022-12-22T11:25:40.364Z,100317.22
2022-12-22T11:29:13.160Z,100327.94
2022-12-22T11:32:45.230Z,100332.34
2022-12-22T11:35:59.137Z,100329.88
2022-12-22T11:39:13.747Z,100342.88
2022-12-22T11:42:50.949Z,100337.94
2022-12-22T11:46:13.037Z,100350.97
2022-12-22T11:50:25.500Z,100352.94
2022-12-22T11:54:17.696Z,100351.38
2022-12-22T11:57:34.555Z,100356.59
2022-12-22T12:04:50.042Z,100354.66
2022-12-22T12:08:05.764Z,100365.84
2022-12-22T12:11:22.217Z,100368.19
2022-12-22T12:14:37.440Z,100368.09
2022-12-22T12:18:04.334Z,100373.22
2022-12-22T12:21:29.298Z,100378.31
2022-12-22T12:24:50.015Z,100377.38
2022-12-22T12:28:13.250Z,100377.25
2022-12-22T12:31:26.514Z,100375.50
2022-12-22T12:34:37.597Z,100367.50
2022-12-22T12:37:46.701Z,100371.94
2022-12-22T12:40:58.417Z,100358.75
2022-12-22T12:44:05.781Z,100367.50
2022-12-22T12:47:27.063Z,100372.63
2022-12-22T12:50:37.827Z,100377.78
2022-12-22T12:54:24.376Z,100374.31
2022-12-22T12:57:31.405Z,100372.63
2022-12-22T13:00:53.792Z,100378.53
2022-12-22T13:04:04.283Z,100378.78
2022-12-22T13:07:09.059Z,100383.91
2022-12-22T13:10:21.729Z,100379.38
2022-12-22T13:13:52.501Z,100375.19
2022-12-22T13:17:34.675Z,100376.06
2022-12-22T13:20:40.241Z,100379.38
2022-12-22T13:24:22.866Z,100382.03
2022-12-22T13:27:15.824Z,100376.06
2022-12-22T13:30:22.984Z,100391.72
2022-12-22T13:33:39.308Z,100390.88
2022-12-22T13:36:46.941Z,100399.59
2022-12-22T13:40:18.512Z,100401.19
2022-12-22T13:43:22.888Z,100402.03
2022-12-22T13:46:27.946Z,100409.84
2022-12-22T13:50:07.008Z,100401.94
2022-12-22T13:53:03.522Z,100408.06
2022-12-22T13:56:09.777Z,100407.38
2022-12-22T13:59:29.335Z,100408.31
2022-12-22T14:02:34.723Z,100413.69
2022-12-22T14:05:38.365Z,100412.06
2022-12-22T14:08:43.389Z,100427.91
2022-12-22T14:11:53.163Z,100419.41
2022-12-22T14:15:01.206Z,100411.75
2022-12-22T14:18:05.772Z,100418.78
2022-12-22T14:21:12.090Z,100424.13
2022-12-22T14:24:25.215Z,100423.31
2022-12-22T14:27:37.263Z,100422.78
2022-12-22T14:30:47.902Z,100422.84
2022-12-22T14:33:57.124Z,100423.13
2022-12-22T14:37:02.475Z,100432.88
2022-12-22T14:40:16.149Z,100418.28
2022-12-22T14:43:31.648Z,100425.38
2022-12-22T14:46:39.129Z,100428.09
2022-12-22T14:49:50.633Z,100433.28
2022-12-22T14:52:57.541Z,100430.69
2022-12-22T14:56:02.900Z,100443.06
2022-12-22T14:59:13.188Z,100440.69
2022-12-22T15:02:32.215Z,100448.41
2022-12-22T15:05:42.195Z,100449.38
2022-12-22T15:08:45.786Z,100457.88
2022-12-22T15:11:56.882Z,100457.03
2022-12-22T15:15:02.187Z,100456.22
2022-12-22T15:18:06.074Z,100464.06
2022-12-22T15:21:14.790Z,100467.56
2022-12-22T15:24:20.032Z,100462.50
2022-12-22T15:27:25.069Z,100473.63
2022-12-22T15:30:28.791Z,100471.09
2022-12-22T15:33:32.893Z,100476.22
2022-12-22T15:36:37.064Z,100475.09
2022-12-22T15:39:40.917Z,100478.47
2022-12-22T15:42:47.343Z,100474.97
2022-12-22T15:45:51.168Z,100475.72
2022-12-22T15:48:55.000Z,100474.78
2022-12-22T15:52:04.069Z,100473.09
2022-12-22T15:55:11.211Z,100480.06
2022-12-22T15:58:20.404Z,100481.75
2022-12-22T16:01:24.136Z,100481.69
2022-12-22T16:04:28.516Z,100473.88
2022-12-22T16:07:33.000Z,100487.72
2022-12-22T16:10:36.758Z,100484.22
2022-12-22T16:13:41.848Z,100486.91
2022-12-22T16:16:47.334Z,100482.53
2022-12-22T16:19:51.267Z,100479.09
2022-12-22T16:22:55.488Z,100485.03
2022-12-22T16:26:02.483Z,100484.22
2022-12-22T16:29:16.147Z,100477.09
2022-12-22T16:32:26.773Z,100475.47
2022-12-22T16:35:33.099Z,100485.03
2022-12-22T16:38:36.865Z,100482.44
2022-12-22T16:41:40.950Z,100474.66
2022-12-22T16:45:01.809Z,100478.94
2022-12-22T16:48:14.063Z,100475.47
2022-12-22T16:51:23.775Z,100482.38
2022-12-22T16:54:27.353Z,100478.84
2022-12-22T16:57:31.040Z,100474.63
2022-12-22T17:00:38.548Z,100473.75
2022-12-22T17:03:43.213Z,100472.13
2022-12-22T17:06:50.374Z,100466.13
2022-12-22T17:09:59.051Z,100466.06
2022-12-22T17:13:04.259Z,100463.34
2022-12-22T17:16:20.072Z,100458.88
2022-12-22T17:19:23.899Z,100457.06
2022-12-22T17:22:31.522Z,100454.47
2022-12-22T17:25:35.417Z,100448.38
2022-12-22T17:28:41.113Z,100450.22
2022-12-22T17:31:46.111Z,100445.13
2022-12-22T17:34:50.353Z,100446.09
2022-12-22T17:37:55.353Z,100450.50
2022-12-22T17:40:58.987Z,100452.44
2022-12-22T17:44:02.560Z,100443.91
2022-12-22T17:47:07.811Z,100450.94
2022-12-22T17:50:16.035Z,100450.09
2022-12-22T17:53:22.102Z,100444.97
2022-12-22T17:56:28.643Z,100454.53
2022-12-22T17:59:32.314Z,100447.66
2022-12-22T18:02:37.489Z,100452.00
2022-12-22T18:05:45.556Z,100439.88
2022-12-22T18:08:49.712Z,100446.88
2022-12-22T18:11:54.362Z,100435.59
2022-12-22T18:14:57.907Z,100440.81
2022-12-22T18:18:02.918Z,100435.63
2022-12-22T18:21:08.282Z,100439.03
2022-12-22T18:24:18.779Z,100435.50
2022-12-22T18:27:24.503Z,100434.59
2022-12-22T18:30:32.292Z,100435.44
2022-12-22T18:33:37.828Z,100426.66
2022-12-22T18:36:45.535Z,100425.78
2022-12-22T18:39:49.569Z,100422.34
2022-12-22T18:42:54.815Z,100421.38
2022-12-22T18:45:58.943Z,100421.41
2022-12-22T18:49:06.034Z,100416.13
2022-12-22T18:52:19.523Z,100417.94
2022-12-22T18:55:26.666Z,100406.66
2022-12-22T18:58:30.263Z,100415.34
2022-12-22T19:01:34.313Z,100399.72
2022-12-22T19:04:39.788Z,100405.81
2022-12-22T19:07:43.803Z,100401.56
2022-12-22T19:10:52.315Z,100400.63
2022-12-22T19:13:56.379Z,100395.38
2022-12-22T19:17:02.187Z,100396.31
2022-12-22T19:20:15.845Z,100401.59
2022-12-22T19:23:21.858Z,100393.75
2022-12-22T19:26:29.009Z,100393.78
2022-12-22T19:29:33.010Z,100381.69
2022-12-22T19:32:46.265Z,100381.72
2022-12-22T19:35:51.887Z,100381.44
2022-12-22T19:39:03.394Z,100374.72
2022-12-22T19:42:16.526Z,100380.97
2022-12-22T19:45:35.867Z,100374.91
2022-12-22T19:48:39.857Z,100368.06
2022-12-22T19:51:45.383Z,100369.03
2022-12-22T19:54:49.408Z,100360.41
2022-12-22T19:57:54.177Z,100358.06
2022-12-22T20:00:58.138Z,100361.56
2022-12-22T20:04:02.013Z,100361.56
2022-12-22T20:07:14.711Z,100365.94
2022-12-22T20:10:19.105Z,100363.34
2022-12-22T20:13:25.475Z,100360.59
2022-12-22T20:16:29.325Z,100361.50
2022-12-22T20:19:33.112Z,100356.25
2022-12-22T20:22:39.483Z,100350.97
2022-12-22T20:25:47.809Z,100347.53
2022-12-22T20:28:52.017Z,100344.84
2022-12-22T20:31:55.944Z,100350.25
2022-12-22T20:34:59.602Z,100338.97
2022-12-22T20:38:21.686Z,100339.88
2022-12-22T20:41:26.312Z,100340.56
2022-12-22T20:44:29.957Z,100337.16
2022-12-22T20:47:34.811Z,100341.53
2022-12-22T20:50:38.448Z,100344.13
2022-12-22T20:53:44.414Z,100342.19
2022-12-22T20:56:48.065Z,100336.25
2022-12-22T20:59:56.080Z,100333.66
2022-12-22T21:03:00.473Z,100332.75
2022-12-22T21:06:22.228Z,100321.44
2022-12-22T21:09:27.411Z,100318.69
2022-12-22T21:12:31.049Z,100317.75
2022-12-22T21:15:34.856Z,100312.75
2022-12-22T21:18:38.453Z,100312.34
2022-12-22T21:21:42.059Z,100320.44
2022-12-22T21:24:47.020Z,100322.97
2022-12-22T21:27:52.901Z,100323.56
2022-12-22T21:30:56.569Z,100312.03
2022-12-22T21:34:00.297Z,100309.88
2022-12-22T21:37:04.618Z,100317.41
2022-12-22T21:40:20.508Z,100313.06
2022-12-22T21:43:24.122Z,100303.88
2022-12-22T21:46:27.929Z,100310.94
2022-12-22T21:49:33.967Z,100311.84
2022-12-22T21:52:37.698Z,100311.78
2022-12-22T21:55:43.867Z,100310.16
2022-12-22T21:58:47.594Z,100304.19
2022-12-22T22:01:53.029Z,100300.84
2022-12-22T22:04:56.775Z,100296.50
2022-12-22T22:08:01.813Z,100295.72
2022-12-22T22:11:18.678Z,100293.16
2022-12-22T22:14:22.688Z,100295.88
2022-12-22T22:17:26.391Z,100285.47
2022-12-22T22:20:33.230Z,100292.50
2022-12-22T22:23:37.818Z,100293.38
2022-12-22T22:26:45.486Z,100292.59
2022-12-22T22:29:49.170Z,100292.59
2022-12-22T22:32:53.681Z,100280.56
2022-12-22T22:36:03.838Z,100281.41
2022-12-22T22:39:10.325Z,100283.16
2022-12-22T22:42:15.381Z,100277.25
2022-12-22T22:45:24.130Z,100276.47
2022-12-22T22:48:28.073Z,100272.25
2022-12-22T22:51:31.943Z,100265.19
2022-12-22T22:54:36.731Z,100269.63
2022-12-22T22:57:42.778Z,100274.72
2022-12-22T23:00:46.539Z,100256.50
2022-12-22T23:03:50.278Z,100261.75
2022-12-22T23:06:54.932Z,100256.53
2022-12-22T23:09:58.700Z,100260.78
2022-12-22T23:13:03.768Z,100265.06
2022-12-22T23:16:07.722Z,100259.84
2022-12-22T23:19:11.471Z,100262.44
2022-12-22T23:22:15.184Z,100257.16
2022-12-22T23:25:18.888Z,100256.34
2022-12-22T23:28:24.939Z,100253.75
2022-12-22T23:31:28.681Z,100246.84
2022-12-22T23:34:32.714Z,100242.59
2022-12-22T23:37:36.394Z,100246.03
2022-12-22T23:40:52.416Z,100238.28
2022-12-22T23:43:58.466Z,100236.63
2022-12-22T23:47:02.102Z,100230.66
2022-12-22T23:50:06.937Z,100229.75
2022-12-22T23:53:10.614Z,100235.03
2022-12-22T23:56:14.375Z,100232.34
2022-12-22T23:59:19.411Z,100222.81
